Aviation Digital Data Service (ADDS)

Output produced by METARs form (1857 UTC 02 September 2014)
found at http://www.aviationweather.gov/adds/metars/
 
KESN 021750Z 27004KT 10SM FEW030 SCT150 34/20 A2998